aviador You're here:

KACV Decoded Metar

ARCATA/EUREKA in CA, USA
Report Time2017-09-24 22:53:00
UTC Time2017-09-24 23:09:14
Flight Rules vfr VFR
Wind340° at 09 kt
W.Decomp.*RWY 32: 9.0 kt HW 0.5 kt RCW
RWY 01: 6.1 kt HW 6.6 kt LCW
W.Rank340° ranks 5
Current wind is above 340° avg. (8.7)
Visibility9999 m
Phenomena:N/A
Clouds:N/A
Expected CloudBase > 1,600 ft AGL from Temp-Dew spread
CeilingNone
Temp17°C (ISA +2)
Dew Point13°C (77% RH)
AAT14.7°C
QNH1016 hPa
Density Alt607 ft
Elevation220 ft
Report Wrong Elevation
Raw Report
METAR KACV 242253Z AUTO 34009KT 10SM CLR 17/13 A3001 RMK AO2 SLP167
T01720128=

Extra information for KACV:More info

Metar Taf Metar & Taf Last 4 Metars F.Rules Stats Wind Profile Meteogram Temp Stats Airport Information Weather charts Add Link Nearby VenuesMetar ALERT Operation Metar Decoded Social comments

AIRNAV info for KACV